Time;durP1;ratioP1;P1;durP2;ratioP2;P2;SDS_P1;SDS_P2;PMS_P1;PMS_P2;Temp;Humidity;BMP_temperature;BMP_pressure;BME280_temperature;BME280_humidity;BME280_pressure;Samples;Min_cycle;Max_cycle;Signal;HPM_P1;HPM_P2
2023/01/24 00:01:25;;;;;;;4.68;2.72;;;3.90;99.90;;;;;;5034015;28;20017;-68
2023/01/24 00:03:51;;;;;;;6.45;3.35;;;3.80;99.90;;;;;;5033732;28;20025;-68
2023/01/24 00:06:16;;;;;;;5.20;2.72;;;3.60;99.90;;;;;;5032460;28;20018;-68
2023/01/24 00:08:42;;;;;;;5.60;3.00;;;3.70;99.90;;;;;;5033808;28;20205;-68
2023/01/24 00:11:10;;;;;;;5.88;3.03;;;3.60;99.90;;;;;;5032442;28;20021;-68
2023/01/24 00:13:36;;;;;;;5.43;2.70;;;3.60;99.90;;;;;;5032248;28;20025;-68
2023/01/24 00:16:20;;;;;;;5.50;2.72;;;3.60;99.90;;;;;;5032323;28;20071;-67
2023/01/24 00:18:46;;;;;;;4.07;2.78;;;3.60;99.90;;;;;;5032151;28;20017;-67
2023/01/24 00:21:23;;;;;;;7.40;3.50;;;3.80;99.90;;;;;;5032197;28;20018;-68
2023/01/24 00:23:51;;;;;;;6.13;3.15;;;3.90;99.90;;;;;;5032415;28;20029;-68
2023/01/24 00:26:18;;;;;;;4.68;2.85;;;3.90;99.90;;;;;;5032200;28;20112;-68
2023/01/24 00:28:44;;;;;;;5.38;2.85;;;4.00;99.90;;;;;;5032097;28;20038;-68
2023/01/24 00:31:10;;;;;;;5.60;2.83;;;3.90;99.90;;;;;;5032194;28;20022;-68
2023/01/24 00:33:36;;;;;;;5.95;3.13;;;3.90;99.90;;;;;;5031983;28;20091;-67
2023/01/24 00:36:02;;;;;;;6.78;3.17;;;4.00;99.90;;;;;;5032096;28;20025;-68
2023/01/24 00:38:30;;;;;;;7.35;3.15;;;4.00;99.90;;;;;;5033321;28;20499;-68
2023/01/24 00:40:55;;;;;;;7.07;3.17;;;3.90;99.90;;;;;;5033727;28;20049;-68
2023/01/24 00:43:21;;;;;;;6.85;3.45;;;3.70;99.90;;;;;;5031997;28;20071;-68
2023/01/24 00:45:46;;;;;;;6.75;3.40;;;3.70;99.90;;;;;;5032266;28;20093;-68
2023/01/24 00:48:12;;;;;;;7.13;3.55;;;3.60;99.90;;;;;;5032325;28;20060;-68
2023/01/24 00:50:38;;;;;;;6.85;3.90;;;3.80;99.90;;;;;;5031933;28;20378;-68
2023/01/24 00:53:04;;;;;;;6.95;3.28;;;3.80;99.90;;;;;;5032538;28;20029;-68
2023/01/24 00:55:30;;;;;;;6.18;3.30;;;3.80;99.90;;;;;;5035927;28;20021;-67
2023/01/24 00:57:56;;;;;;;8.77;3.80;;;3.90;99.90;;;;;;5035885;28;20028;-68
2023/01/24 01:00:22;;;;;;;7.40;3.75;;;3.80;99.90;;;;;;5037093;28;20074;-68
2023/01/24 01:02:49;;;;;;;9.13;3.90;;;3.80;99.90;;;;;;5036355;28;20083;-68
2023/01/24 01:05:16;;;;;;;8.95;4.38;;;3.90;99.90;;;;;;5035782;28;20026;-68
2023/01/24 01:07:41;;;;;;;7.43;4.20;;;4.00;99.90;;;;;;5035590;28;20021;-67
2023/01/24 01:10:07;;;;;;;10.30;4.40;;;3.90;99.90;;;;;;5035932;28;20595;-67
2023/01/24 01:12:33;;;;;;;7.63;3.90;;;4.00;99.90;;;;;;5035576;28;20029;-68
2023/01/24 01:14:59;;;;;;;9.32;3.78;;;4.00;99.90;;;;;;5036832;28;20032;-68
2023/01/24 01:17:24;;;;;;;7.97;4.35;;;3.90;99.90;;;;;;5035436;28;20476;-68
2023/01/24 01:19:53;;;;;;;10.15;3.95;;;3.80;99.90;;;;;;5035379;28;20028;-68
2023/01/24 01:22:20;;;;;;;9.30;4.68;;;3.80;99.90;;;;;;5035488;28;20026;-68
2023/01/24 01:24:45;;;;;;;7.75;3.92;;;3.90;99.90;;;;;;5035654;28;20099;-68
2023/01/24 01:27:11;;;;;;;9.98;4.70;;;3.80;99.90;;;;;;5035662;28;20025;-68
2023/01/24 01:29:37;;;;;;;7.93;3.95;;;3.80;99.90;;;;;;5036543;28;20029;-68
2023/01/24 01:32:02;;;;;;;9.80;4.80;;;3.70;99.90;;;;;;5036396;28;20061;-68
2023/01/24 01:34:28;;;;;;;7.57;4.05;;;3.80;99.90;;;;;;5036424;28;20025;-68
2023/01/24 01:36:54;;;;;;;8.48;5.05;;;3.70;99.90;;;;;;5035193;28;20021;-68
2023/01/24 01:39:19;;;;;;;9.55;4.68;;;3.70;99.90;;;;;;5035428;28;20076;-68
2023/01/24 01:41:45;;;;;;;13.27;5.13;;;3.60;99.90;;;;;;5036335;28;20022;-68
2023/01/24 01:47:04;;;;;;;8.95;4.68;;;3.60;99.90;;;;;;5036496;28;20083;-67
2023/01/24 01:49:30;;;;;;;9.45;5.00;;;3.50;99.90;;;;;;5035175;28;20053;-67
2023/01/24 01:52:02;;;;;;;11.38;5.10;;;3.50;99.90;;;;;;5035592;28;20111;-67
2023/01/24 01:54:32;;;;;;;10.40;4.85;;;3.30;99.90;;;;;;5034908;28;20029;-67
2023/01/24 01:57:07;;;;;;;9.25;4.82;;;3.40;99.90;;;;;;5034841;28;20083;-68
2023/01/24 01:59:38;;;;;;;8.02;4.53;;;3.50;99.90;;;;;;5035563;28;20040;-68
2023/01/24 02:02:21;;;;;;;9.57;4.47;;;3.60;99.90;;;;;;5035401;28;20127;-68
2023/01/24 02:04:51;;;;;;;12.48;4.88;;;3.50;99.90;;;;;;5034425;28;20068;-68
2023/01/24 02:07:25;;;;;;;10.23;4.60;;;3.40;99.90;;;;;;5036244;28;20036;-68
2023/01/24 02:09:54;;;;;;;10.15;5.40;;;3.30;99.90;;;;;;5079335;22;20037;-70
2023/01/24 02:12:33;;;;;;;10.43;5.13;;;3.30;99.90;;;;;;5075744;28;20155;-70
2023/01/24 02:17:51;;;;;;;10.90;5.65;;;3.50;99.90;;;;;;5075992;28;20038;-70
2023/01/24 02:20:31;;;;;;;13.15;5.38;;;3.60;99.90;;;;;;5075386;28;20020;-70
2023/01/24 02:23:22;;;;;;;9.57;5.22;;;3.80;99.90;;;;;;5075537;28;20115;-71
2023/01/24 02:25:59;;;;;;;11.82;5.32;;;3.60;99.90;;;;;;5075490;28;20024;-71
2023/01/24 02:28:24;;;;;;;10.70;5.32;;;3.70;99.90;;;;;;5074167;28;20123;-71
2023/01/24 02:30:50;;;;;;;10.73;5.28;;;3.90;99.90;;;;;;5074363;28;20062;-71
2023/01/24 02:33:18;;;;;;;10.95;5.53;;;3.70;99.90;;;;;;5075356;28;20064;-70
2023/01/24 02:35:44;;;;;;;11.77;5.68;;;3.70;99.90;;;;;;5074019;28;20043;-70
2023/01/24 02:38:16;;;;;;;11.27;5.75;;;3.80;99.90;;;;;;5074267;28;20024;-70
2023/01/24 02:40:41;;;;;;;9.73;5.15;;;3.90;99.90;;;;;;5073794;28;20017;-70
2023/01/24 02:43:10;;;;;;;12.52;5.30;;;3.70;99.90;;;;;;5073849;28;20096;-69
2023/01/24 02:45:36;;;;;;;12.88;5.80;;;3.80;99.90;;;;;;5074130;28;20481;-69
2023/01/24 02:48:02;;;;;;;12.02;6.20;;;3.60;99.90;;;;;;5073679;28;20051;-69
2023/01/24 02:53:29;;;;;;;13.73;5.88;;;3.50;99.90;;;;;;5073643;28;20482;-68
2023/01/24 02:53:31;;;;;;;11.20;6.07;;;3.50;99.90;;;;;;5074974;28;20126;-68
2023/01/24 02:58:49;;;;;;;11.32;5.55;;;3.40;99.90;;;;;;5075385;28;20052;-68
2023/01/24 03:01:15;;;;;;;9.68;5.20;;;3.50;99.90;;;;;;5074834;28;20037;-71
2023/01/24 03:03:42;;;;;;;13.75;6.13;;;3.40;99.90;;;;;;5075039;28;20033;-71
2023/01/24 03:06:09;;;;;;;11.25;4.90;;;3.50;99.90;;;;;;5073406;28;20505;-71
2023/01/24 03:08:35;;;;;;;13.95;6.35;;;3.50;99.90;;;;;;5074728;28;20031;-70
2023/01/24 03:11:01;;;;;;;13.32;5.72;;;3.50;99.90;;;;;;5075349;28;20037;-70
2023/01/24 03:35:22;;;;;;;9.82;4.95;;;3.50;99.90;;;;;;5074438;28;20150;-71
2023/01/24 03:40:32;;;;;;;7.88;4.47;;;3.60;99.90;;;;;;5074268;28;20039;-71
2023/01/24 03:42:59;;;;;;;10.43;5.40;;;3.50;99.90;;;;;;5072703;28;20028;-71
2023/01/24 03:45:31;;;;;;;12.65;5.85;;;3.50;99.90;;;;;;5073034;28;20027;-71
2023/01/24 03:47:58;;;;;;;;;;;3.50;99.90;;;;;;5074683;28;20071;-71
2023/01/24 03:53:20;;;;;;;12.85;5.70;;;3.60;99.90;;;;;;5073848;28;20071;-71
2023/01/24 03:55:50;;;;;;;13.98;5.75;;;3.60;99.90;;;;;;5073385;28;20050;-71
2023/01/24 03:58:16;;;;;;;11.00;4.63;;;3.70;99.90;;;;;;5073513;28;20031;-71
2023/01/24 04:00:41;;;;;;;11.77;5.00;;;3.70;99.90;;;;;;5072822;28;20020;-71
2023/01/24 04:03:07;;;;;;;9.52;4.88;;;3.60;99.90;;;;;;5072492;28;20025;-71
2023/01/24 04:05:34;;;;;;;11.82;5.60;;;3.70;99.90;;;;;;5072480;28;20029;-71
2023/01/24 04:07:59;;;;;;;10.27;5.07;;;3.70;99.90;;;;;;5072394;28;20028;-71
2023/01/24 04:10:25;;;;;;;10.93;5.10;;;3.80;99.90;;;;;;5072528;28;20067;-71
2023/01/24 04:12:51;;;;;;;10.20;5.43;;;3.90;99.90;;;;;;5072234;28;20027;-71
2023/01/24 04:15:19;;;;;;;12.45;5.70;;;3.80;99.90;;;;;;5073503;28;20020;-71
2023/01/24 04:17:45;;;;;;;12.82;5.68;;;3.80;99.90;;;;;;5072949;28;20043;-71
2023/01/24 04:20:11;;;;;;;12.25;6.22;;;3.70;99.90;;;;;;5073493;28;20090;-71
2023/01/24 04:22:36;;;;;;;11.50;5.45;;;3.60;99.90;;;;;;5073431;28;20039;-71
2023/01/24 04:25:02;;;;;;;12.98;5.22;;;3.40;99.90;;;;;;5072826;28;20017;-71
2023/01/24 04:27:28;;;;;;;11.55;5.40;;;3.40;99.90;;;;;;5072196;28;20078;-71
2023/01/24 04:29:53;;;;;;;12.50;6.40;;;3.40;99.90;;;;;;5072058;28;20119;-71
2023/01/24 04:32:19;;;;;;;12.90;5.55;;;3.40;99.90;;;;;;5072027;28;20112;-71
2023/01/24 04:34:44;;;;;;;12.35;6.00;;;3.40;99.90;;;;;;5072593;28;20170;-71
2023/01/24 04:37:10;;;;;;;12.32;6.00;;;3.30;99.90;;;;;;5079913;28;20029;-71
2023/01/24 04:39:36;;;;;;;13.23;5.97;;;3.40;99.90;;;;;;5073504;28;20032;-71
2023/01/24 04:42:01;;;;;;;12.00;5.93;;;3.30;99.90;;;;;;5073306;28;20028;-71
2023/01/24 04:44:27;;;;;;;15.75;6.57;;;3.30;99.90;;;;;;5072324;28;20025;-71
2023/01/24 04:46:52;;;;;;;16.95;6.80;;;3.30;99.90;;;;;;5073384;28;20035;-71
2023/01/24 04:49:18;;;;;;;17.42;6.50;;;3.20;99.90;;;;;;5071957;28;20035;-71
2023/01/24 04:51:46;;;;;;;16.23;6.88;;;3.20;99.90;;;;;;5073190;28;20052;-71
2023/01/24 04:54:11;;;;;;;16.40;6.80;;;3.20;99.90;;;;;;5073175;28;20441;-71
2023/01/24 04:56:37;;;;;;;14.07;5.72;;;3.10;99.90;;;;;;5071924;28;20074;-71
2023/01/24 04:59:03;;;;;;;16.15;6.38;;;3.20;99.90;;;;;;5073433;28;20020;-71
2023/01/24 05:01:28;;;;;;;14.70;6.40;;;3.20;99.90;;;;;;5071870;28;20052;-71
2023/01/24 05:04:00;;;;;;;15.63;6.15;;;3.30;99.90;;;;;;5071812;28;20031;-71
2023/01/24 05:06:26;;;;;;;20.17;7.63;;;3.30;99.90;;;;;;5072158;28;20027;-71
2023/01/24 05:08:53;;;;;;;16.85;7.75;;;3.30;99.90;;;;;;5071746;28;20044;-71
2023/01/24 05:11:18;;;;;;;15.65;7.00;;;3.20;99.90;;;;;;5071906;28;20020;-71
2023/01/24 05:13:44;;;;;;;17.48;6.72;;;3.20;99.90;;;;;;5071938;28;20066;-71
2023/01/24 05:16:09;;;;;;;17.73;8.32;;;3.40;99.90;;;;;;5073514;28;20035;-71
2023/01/24 05:18:35;;;;;;;14.40;6.63;;;3.40;99.90;;;;;;5072754;28;20021;-71
2023/01/24 05:21:09;;;;;;;22.50;8.80;;;3.50;99.90;;;;;;5072186;28;20027;-71
2023/01/24 05:23:35;;;;;;;16.40;8.00;;;3.40;99.90;;;;;;5072907;28;20020;-71
2023/01/24 05:26:02;;;;;;;19.98;8.25;;;3.30;99.90;;;;;;5071789;28;20127;-71
2023/01/24 05:28:28;;;;;;;17.15;8.48;;;3.40;99.90;;;;;;5071923;28;20028;-70
2023/01/24 05:31:01;;;;;;;18.50;8.40;;;3.30;99.90;;;;;;5072811;28;20032;-71
2023/01/24 05:33:27;;;;;;;18.48;8.75;;;3.30;99.90;;;;;;5071867;28;20113;-71
2023/01/24 05:36:04;;;;;;;18.45;7.82;;;3.40;99.90;;;;;;5072865;28;20057;-71
2023/01/24 05:38:30;;;;;;;20.02;7.85;;;3.50;99.90;;;;;;5071628;28;20113;-70
2023/01/24 05:41:04;;;;;;;15.70;6.82;;;3.40;99.90;;;;;;5083258;28;20116;-71
2023/01/24 05:43:30;;;;;;;17.20;8.55;;;3.30;99.90;;;;;;5075223;28;20033;-71
2023/01/24 05:46:02;;;;;;;21.45;10.18;;;3.20;99.90;;;;;;5075076;28;20021;-71
2023/01/24 05:48:28;;;;;;;17.73;7.78;;;3.30;99.90;;;;;;5076598;28;20078;-71
2023/01/24 05:51:01;;;;;;;21.05;8.43;;;3.30;99.90;;;;;;5074991;28;20024;-71
2023/01/24 05:53:28;;;;;;;19.80;8.77;;;3.20;99.90;;;;;;5076083;28;20024;-71
2023/01/24 05:55:58;;;;;;;22.98;9.65;;;3.20;99.90;;;;;;5074880;28;20029;-71
2023/01/24 05:58:25;;;;;;;20.73;8.45;;;3.20;99.90;;;;;;5074726;28;20479;-71
2023/01/24 06:00:51;;;;;;;18.30;8.68;;;3.20;99.90;;;;;;5078541;28;20414;-71
2023/01/24 06:03:17;;;;;;;18.08;8.38;;;3.40;99.90;;;;;;5079594;28;20031;-71
2023/01/24 06:05:52;;;;;;;20.48;8.40;;;3.20;99.90;;;;;;5078110;28;20483;-71
2023/01/24 06:08:18;;;;;;;21.35;10.27;;;3.20;99.90;;;;;;5076366;28;20021;-71
2023/01/24 06:10:44;;;;;;;18.30;8.80;;;3.20;99.90;;;;;;5075852;28;20111;-71
2023/01/24 06:13:10;;;;;;;22.00;9.50;;;3.10;99.90;;;;;;5075811;28;20036;-69
2023/01/24 06:15:36;;;;;;;18.80;8.07;;;3.10;99.90;;;;;;5076977;28;20017;-68
2023/01/24 06:18:03;;;;;;;19.73;8.85;;;3.10;99.90;;;;;;5075014;28;20047;-68
2023/01/24 06:20:29;;;;;;;19.17;8.55;;;3.00;99.90;;;;;;5074389;28;20020;-69
2023/01/24 06:23:01;;;;;;;19.00;8.60;;;3.20;99.90;;;;;;5075262;28;20027;-69
2023/01/24 06:25:27;;;;;;;22.55;9.10;;;3.20;99.90;;;;;;5075073;28;20028;-71
2023/01/24 06:27:53;;;;;;;19.83;9.25;;;3.30;99.90;;;;;;5076161;28;20095;-71
2023/01/24 06:30:19;;;;;;;19.13;9.10;;;3.50;99.90;;;;;;5075311;28;20061;-71
2023/01/24 06:33:05;;;;;;;23.17;8.98;;;3.30;99.90;;;;;;5075424;28;20047;-71
2023/01/24 06:35:58;;;;;;;22.02;9.68;;;3.30;99.90;;;;;;5074221;28;20127;-69
2023/01/24 06:38:24;;;;;;;21.10;8.60;;;3.40;99.90;;;;;;5075379;28;20062;-69
2023/01/24 06:40:56;;;;;;;19.30;8.55;;;3.40;99.90;;;;;;5075552;28;20020;-69
2023/01/24 06:43:22;;;;;;;18.35;8.25;;;3.40;99.90;;;;;;5074050;28;20109;-69
2023/01/24 06:45:48;;;;;;;18.10;8.52;;;3.30;99.90;;;;;;5078833;28;20024;-68
2023/01/24 06:48:13;;;;;;;23.88;10.10;;;3.20;99.90;;;;;;5075111;28;20088;-68
2023/01/24 06:50:39;;;;;;;21.70;9.73;;;3.20;99.90;;;;;;5073358;28;20025;-68
2023/01/24 06:53:04;;;;;;;21.55;8.32;;;3.30;99.90;;;;;;5074967;28;20033;-68
2023/01/24 06:55:30;;;;;;;23.88;9.25;;;3.30;99.90;;;;;;5075062;28;20028;-68
2023/01/24 06:57:57;;;;;;;17.85;8.70;;;3.20;99.90;;;;;;5075189;28;20052;-68
2023/01/24 07:00:23;;;;;;;20.13;8.95;;;3.10;99.90;;;;;;5074861;28;20095;-68
2023/01/24 07:03:00;;;;;;;18.17;8.90;;;3.00;99.90;;;;;;5073678;28;20025;-68
2023/01/24 07:05:27;;;;;;;20.50;8.88;;;3.20;99.90;;;;;;5073629;28;20075;-68
2023/01/24 07:07:53;;;;;;;18.23;8.13;;;3.20;99.90;;;;;;5074817;28;20056;-68
2023/01/24 07:10:18;;;;;;;18.42;8.00;;;3.10;99.90;;;;;;5073306;28;20067;-68
2023/01/24 07:12:44;;;;;;;19.58;8.32;;;3.00;99.90;;;;;;5073517;28;20028;-68
2023/01/24 07:15:10;;;;;;;19.67;8.80;;;2.90;99.90;;;;;;5073730;28;20472;-68
2023/01/24 07:17:36;;;;;;;21.13;8.50;;;2.90;99.90;;;;;;5074620;28;20173;-68
2023/01/24 07:20:02;;;;;;;15.80;7.35;;;2.80;99.90;;;;;;5073167;28;20017;-68
2023/01/24 07:22:28;;;;;;;21.20;8.55;;;2.80;99.90;;;;;;5074007;28;20036;-68
2023/01/24 07:24:54;;;;;;;18.80;8.65;;;2.90;99.90;;;;;;5073168;28;20028;-68
2023/01/24 07:27:20;;;;;;;21.02;8.68;;;2.80;99.90;;;;;;5073225;28;20078;-71
2023/01/24 07:29:45;;;;;;;17.88;8.20;;;3.00;99.90;;;;;;5073382;28;20091;-72
2023/01/24 07:32:11;;;;;;;16.52;8.02;;;3.10;99.90;;;;;;5074354;28;20368;-71
2023/01/24 07:34:38;;;;;;;22.30;9.80;;;3.20;99.90;;;;;;5074543;28;20051;-71
2023/01/24 07:37:06;;;;;;;19.13;8.45;;;3.30;99.90;;;;;;5073041;28;20020;-73
2023/01/24 07:39:32;;;;;;;17.02;7.53;;;3.30;99.90;;;;;;5072874;28;20022;-73
2023/01/24 07:41:57;;;;;;;16.17;8.15;;;3.20;99.90;;;;;;5072945;28;20112;-73
2023/01/24 07:44:23;;;;;;;21.55;8.90;;;3.10;99.90;;;;;;5074093;28;20103;-72
2023/01/24 07:46:48;;;;;;;19.73;8.90;;;3.00;99.90;;;;;;5074092;28;20025;-71
2023/01/24 07:49:14;;;;;;;19.73;8.13;;;3.00;99.90;;;;;;5079940;28;20056;-70
2023/01/24 07:51:40;;;;;;;17.67;8.15;;;3.10;99.90;;;;;;5072612;28;20100;-70
2023/01/24 07:54:06;;;;;;;15.80;7.65;;;3.10;99.90;;;;;;5072526;28;20028;-70
2023/01/24 07:56:31;;;;;;;18.25;8.60;;;3.10;99.90;;;;;;5072476;28;20037;-70
2023/01/24 07:58:58;;;;;;;16.92;8.45;;;3.10;99.90;;;;;;5074032;28;20095;-70
2023/01/24 08:01:25;;;;;;;18.42;8.32;;;3.20;99.90;;;;;;5074039;28;20020;-70
2023/01/24 08:03:54;;;;;;;20.55;8.13;;;3.20;99.90;;;;;;5072332;28;20024;-71
2023/01/24 08:06:19;;;;;;;17.67;8.75;;;3.00;99.90;;;;;;5073312;28;20024;-71
2023/01/24 08:08:45;;;;;;;19.70;8.43;;;3.10;99.90;;;;;;5072173;28;20025;-71
2023/01/24 08:11:13;;;;;;;20.15;9.00;;;3.00;99.90;;;;;;5072835;28;20078;-71
2023/01/24 08:13:38;;;;;;;17.83;7.95;;;3.00;99.90;;;;;;5072721;28;20032;-71
2023/01/24 08:16:04;;;;;;;18.15;8.77;;;3.20;99.90;;;;;;5074169;28;20025;-70
2023/01/24 08:18:30;;;;;;;16.70;8.10;;;3.20;99.90;;;;;;5073459;28;20479;-70
2023/01/24 08:20:56;;;;;;;16.42;8.05;;;3.30;99.90;;;;;;5072247;28;20017;-70
2023/01/24 08:23:22;;;;;;;20.58;8.43;;;3.30;99.90;;;;;;5073487;28;20032;-70
2023/01/24 08:25:47;;;;;;;21.60;9.40;;;3.30;99.90;;;;;;5073319;28;20077;-71
2023/01/24 08:28:13;;;;;;;18.05;7.80;;;3.30;99.90;;;;;;5072529;28;20024;-71
2023/01/24 08:30:39;;;;;;;21.52;9.00;;;3.20;99.90;;;;;;5073296;28;20056;-71
2023/01/24 08:33:06;;;;;;;16.27;7.63;;;3.30;99.90;;;;;;5072309;28;20021;-70
2023/01/24 08:35:32;;;;;;;22.92;8.40;;;3.10;99.90;;;;;;5073572;28;20131;-70
2023/01/24 08:37:58;;;;;;;20.52;8.68;;;3.10;99.90;;;;;;5073354;28;20075;-70
2023/01/24 08:40:24;;;;;;;18.23;8.82;;;3.20;99.90;;;;;;5071946;28;20028;-70
2023/01/24 08:42:50;;;;;;;19.95;8.80;;;3.20;99.90;;;;;;5072914;28;20029;-70
2023/01/24 08:45:16;;;;;;;18.58;8.82;;;3.20;99.90;;;;;;5071982;28;20435;-70
2023/01/24 08:47:41;;;;;;;21.88;9.55;;;3.30;99.90;;;;;;5072373;28;20116;-70
2023/01/24 08:50:08;;;;;;;19.40;8.20;;;3.50;99.90;;;;;;5073229;28;20021;-70
2023/01/24 08:52:34;;;;;;;16.05;8.73;;;3.50;99.90;;;;;;5071841;28;20025;-70
2023/01/24 08:54:59;;;;;;;18.98;8.70;;;3.60;99.90;;;;;;5073154;28;20027;-70
2023/01/24 08:57:25;;;;;;;20.23;8.15;;;3.50;99.90;;;;;;5072014;28;20029;-71
2023/01/24 08:59:51;;;;;;;18.95;7.47;;;3.40;99.90;;;;;;5072944;28;20115;-71
2023/01/24 09:02:16;;;;;;;15.80;7.50;;;3.40;99.90;;;;;;5073055;28;20020;-71
2023/01/24 09:04:42;;;;;;;15.43;7.82;;;3.40;99.90;;;;;;5073024;28;20035;-70
2023/01/24 09:07:10;;;;;;;19.75;7.55;;;3.30;99.90;;;;;;5073065;28;20436;-70
2023/01/24 09:09:35;;;;;;;18.40;8.40;;;3.30;99.90;;;;;;5072986;28;20177;-70
2023/01/24 09:12:01;;;;;;;18.67;8.40;;;3.40;99.90;;;;;;5071712;28;20123;-70
2023/01/24 09:14:26;;;;;;;17.00;8.63;;;3.50;99.90;;;;;;5073278;28;20429;-70
2023/01/24 09:16:52;;;;;;;19.38;8.65;;;3.50;99.90;;;;;;5075582;28;20025;-70
2023/01/24 09:19:17;;;;;;;16.42;8.75;;;3.60;99.90;;;;;;5075463;28;20024;-70
2023/01/24 09:21:44;;;;;;;17.40;8.63;;;3.50;99.90;;;;;;5076103;28;20027;-70
2023/01/24 09:24:10;;;;;;;19.70;8.73;;;3.50;99.90;;;;;;5076832;28;20035;-70
2023/01/24 09:26:35;;;;;;;18.40;8.35;;;3.50;99.90;;;;;;5075384;28;20024;-70
2023/01/24 09:29:01;;;;;;;18.10;7.75;;;3.50;99.90;;;;;;5075330;28;20028;-70
2023/01/24 09:31:27;;;;;;;20.08;7.80;;;3.30;99.90;;;;;;5075288;28;20021;-70
2023/01/24 09:33:52;;;;;;;18.30;7.80;;;3.50;99.90;;;;;;5075192;28;20034;-70
2023/01/24 09:36:18;;;;;;;17.42;8.13;;;3.60;99.90;;;;;;5075409;28;20020;-70
2023/01/24 09:38:43;;;;;;;21.42;7.53;;;3.40;99.90;;;;;;5075624;28;20031;-70
2023/01/24 09:41:38;;;;;;;17.92;6.93;;;3.40;99.90;;;;;;5075426;28;20016;-70
2023/01/24 09:44:30;;;;;;;17.75;7.45;;;3.50;99.90;;;;;;5075050;28;20024;-70
2023/01/24 09:46:57;;;;;;;14.23;7.25;;;3.30;99.90;;;;;;5074356;28;20058;-70
2023/01/24 09:49:36;;;;;;;15.68;7.93;;;3.30;99.90;;;;;;5076161;28;20086;-70
2023/01/24 09:52:06;;;;;;;16.67;7.63;;;3.40;99.90;;;;;;5076160;28;20029;-70
2023/01/24 09:54:37;;;;;;;15.10;7.63;;;3.60;99.90;;;;;;5074986;28;20029;-70
2023/01/24 09:57:37;;;;;;;15.47;7.37;;;3.40;99.90;;;;;;5074931;28;20021;-70
2023/01/24 10:00:25;;;;;;;13.32;6.65;;;3.60;99.90;;;;;;5058830;28;20050;-70
2023/01/24 10:02:50;;;;;;;16.10;7.10;;;3.60;99.90;;;;;;5074877;28;20055;-70
2023/01/24 10:05:18;;;;;;;15.90;8.10;;;3.50;99.90;;;;;;5074679;28;20020;-70
2023/01/24 10:07:50;;;;;;;14.85;6.70;;;3.50;99.90;;;;;;5074910;28;20029;-70
2023/01/24 10:10:50;;;;;;;16.35;7.50;;;3.40;99.90;;;;;;5074546;28;20032;-70
2023/01/24 10:13:50;;;;;;;15.48;7.15;;;3.40;99.90;;;;;;5074988;28;20029;-70
2023/01/24 10:16:40;;;;;;;17.23;7.47;;;3.50;99.90;;;;;;5075830;28;20025;-70
2023/01/24 10:19:44;;;;;;;12.63;6.03;;;3.60;99.90;;;;;;5075199;28;20024;-71
2023/01/24 10:22:36;;;;;;;14.32;6.55;;;3.40;99.90;;;;;;5075765;28;20032;-70
2023/01/24 10:25:28;;;;;;;14.98;6.75;;;3.40;99.90;;;;;;5074207;28;20049;-70
2023/01/24 10:27:57;;;;;;;11.15;6.00;;;3.40;99.90;;;;;;5063805;28;20102;-70
2023/01/24 10:30:46;;;;;;;13.27;6.40;;;3.30;99.90;;;;;;5074500;28;20387;-70
2023/01/24 10:33:17;;;;;;;12.40;6.13;;;3.30;99.90;;;;;;5076083;28;20028;-70
2023/01/24 10:36:01;;;;;;;16.48;7.28;;;3.40;99.90;;;;;;5075345;28;20020;-70
2023/01/24 10:38:28;;;;;;;13.52;6.45;;;3.40;99.90;;;;;;5074217;28;20025;-70
2023/01/24 10:40:58;;;;;;;10.13;5.30;;;3.60;99.90;;;;;;5075234;28;20020;-70
2023/01/24 10:43:28;;;;;;;10.73;5.60;;;3.60;99.90;;;;;;5075554;28;20024;-70
2023/01/24 10:46:17;;;;;;;18.55;6.30;;;3.60;99.90;;;;;;5075050;28;20071;-70
2023/01/24 10:48:46;;;;;;;14.40;6.15;;;3.70;99.90;;;;;;5075131;28;20024;-70
2023/01/24 10:51:18;;;;;;;12.27;5.57;;;3.80;99.90;;;;;;5073814;28;20028;-70
2023/01/24 10:53:45;;;;;;;11.80;5.93;;;3.70;99.90;;;;;;5074943;28;20031;-70
2023/01/24 10:56:13;;;;;;;13.90;6.40;;;3.60;99.90;;;;;;5073766;28;20475;-70
2023/01/24 10:59:00;;;;;;;10.70;5.28;;;3.60;99.90;;;;;;5073657;28;20111;-70
2023/01/24 11:01:37;;;;;;;9.82;5.15;;;3.50;99.90;;;;;;5075286;28;20031;-70
2023/01/24 11:04:18;;;;;;;10.13;5.57;;;3.50;99.90;;;;;;5074874;28;20036;-70
2023/01/24 11:06:47;;;;;;;14.13;6.38;;;3.60;99.90;;;;;;5073606;28;20024;-70
2023/01/24 11:09:15;;;;;;;13.52;5.65;;;3.60;99.90;;;;;;5073590;28;20071;-70
2023/01/24 11:11:51;;;;;;;11.57;5.30;;;3.70;99.90;;;;;;5074261;28;20041;-70
2023/01/24 11:14:36;;;;;;;11.80;5.63;;;3.60;99.90;;;;;;5073349;28;20021;-70
2023/01/24 11:17:02;;;;;;;10.75;4.88;;;3.60;99.90;;;;;;5073343;28;20060;-70
2023/01/24 11:19:28;;;;;;;9.70;4.70;;;3.60;99.90;;;;;;5074026;28;20020;-70
2023/01/24 11:22:00;;;;;;;12.60;5.57;;;3.60;99.90;;;;;;5074368;28;20025;-70
2023/01/24 11:24:27;;;;;;;13.45;6.20;;;3.80;99.90;;;;;;5074730;28;20514;-70
2023/01/24 11:26:57;;;;;;;14.65;6.57;;;3.70;99.90;;;;;;5074541;28;20033;-71
2023/01/24 11:29:23;;;;;;;12.82;5.95;;;3.70;99.90;;;;;;5074526;28;20066;-70
2023/01/24 11:32:00;;;;;;;11.30;5.53;;;3.70;99.90;;;;;;5074317;28;20082;-70
2023/01/24 11:34:40;;;;;;;10.63;5.45;;;3.80;99.90;;;;;;5073088;28;20119;-70
2023/01/24 11:37:32;;;;;;;14.25;6.30;;;4.00;99.90;;;;;;5072323;28;20056;-71
2023/01/24 11:40:07;;;;;;;13.57;5.78;;;3.90;99.90;;;;;;5072813;28;20067;-70
2023/01/24 11:43:04;;;;;;;13.18;5.65;;;3.80;99.90;;;;;;5072715;28;20033;-70
2023/01/24 11:45:35;;;;;;;12.07;6.22;;;3.70;99.90;;;;;;5036156;28;20040;-70
2023/01/24 11:48:22;;;;;;;13.33;6.90;;;3.70;99.90;;;;;;5073957;28;20082;-70
2023/01/24 11:50:57;;;;;;;14.18;6.43;;;3.60;99.90;;;;;;5072923;28;20052;-70
2023/01/24 11:53:54;;;;;;;14.35;6.28;;;3.60;99.90;;;;;;5074420;28;20468;-70
2023/01/24 11:56:36;;;;;;;16.38;6.15;;;3.70;99.90;;;;;;5059304;28;20514;-70
2023/01/24 11:59:19;;;;;;;14.30;6.13;;;3.80;99.90;;;;;;5073263;28;20025;-70
2023/01/24 12:02:10;;;;;;;15.10;5.63;;;3.70;99.90;;;;;;5073364;28;20028;-70
2023/01/24 12:04:59;;;;;;;13.82;6.10;;;3.60;99.90;;;;;;5073503;28;20017;-70
2023/01/24 12:07:48;;;;;;;11.90;5.78;;;3.70;99.90;;;;;;5072555;28;20021;-70
2023/01/24 12:10:30;;;;;;;14.00;6.25;;;3.90;99.90;;;;;;5072720;28;20040;-70
2023/01/24 12:13:08;;;;;;;9.30;4.70;;;3.90;99.90;;;;;;5072312;28;20484;-70
2023/01/24 12:16:03;;;;;;;14.13;6.10;;;3.80;99.90;;;;;;5074153;28;20112;-70
2023/01/24 12:19:07;;;;;;;14.35;7.60;;;3.70;99.90;;;;;;5072159;28;20020;-70
2023/01/24 12:21:32;;;;;;;15.00;6.85;;;3.60;99.90;;;;;;5070974;28;20057;-70
2023/01/24 12:24:03;;;;;;;14.25;7.03;;;3.60;99.90;;;;;;5073784;28;20086;-70
2023/01/24 12:26:56;;;;;;;11.40;5.40;;;3.50;99.90;;;;;;5072322;28;20078;-70
2023/01/24 12:29:27;;;;;;;10.15;5.60;;;3.60;99.90;;;;;;5065166;28;20045;-70
2023/01/24 12:32:05;;;;;;;14.25;7.55;;;3.70;99.90;;;;;;5072120;28;20075;-70
2023/01/24 12:34:50;;;;;;;10.98;5.82;;;3.70;99.90;;;;;;5073379;28;20032;-70
2023/01/24 12:37:19;;;;;;;12.50;6.03;;;3.60;99.90;;;;;;5072064;28;20024;-70
2023/01/24 12:40:11;;;;;;;13.65;7.00;;;3.60;99.90;;;;;;5073557;28;20021;-70
2023/01/24 12:43:06;;;;;;;16.75;7.30;;;3.60;99.90;;;;;;5062587;28;20037;-70
2023/01/24 12:45:54;;;;;;;12.35;5.97;;;3.50;99.90;;;;;;5072225;28;20085;-70
2023/01/24 12:48:32;;;;;;;13.32;6.28;;;3.50;99.90;;;;;;5073263;28;20031;-70
2023/01/24 12:51:10;;;;;;;12.55;6.68;;;3.50;99.90;;;;;;5075891;28;20029;-70
2023/01/24 12:53:59;;;;;;;14.25;6.35;;;3.60;99.90;;;;;;5077189;28;20028;-70
2023/01/24 12:56:35;;;;;;;18.38;6.40;;;3.90;99.90;;;;;;5077540;28;20027;-70
2023/01/24 12:59:02;;;;;;;12.32;5.35;;;3.90;99.90;;;;;;5076584;28;20043;-71
2023/01/24 13:01:55;;;;;;;13.98;6.18;;;4.00;99.90;;;;;;5076251;28;20025;-71
2023/01/24 13:04:39;;;;;;;17.13;7.10;;;3.90;99.90;;;;;;5075925;28;20052;-71
2023/01/24 13:07:34;;;;;;;12.90;5.90;;;3.90;99.90;;;;;;5077322;28;20060;-71
2023/01/24 13:10:19;;;;;;;17.08;6.78;;;3.90;99.90;;;;;;5075595;28;20119;-71
2023/01/24 13:12:45;;;;;;;10.55;5.43;;;3.90;99.90;;;;;;5076820;28;20066;-71
2023/01/24 13:15:17;;;;;;;13.35;6.35;;;3.90;99.90;;;;;;5076561;28;20059;-70
2023/01/24 13:18:00;;;;;;;10.93;5.65;;;3.80;99.90;;;;;;5075949;28;20021;-70
2023/01/24 13:21:14;;;;;;;14.07;6.13;;;3.70;99.90;;;;;;5076703;28;20030;-70
2023/01/24 13:24:05;;;;;;;12.23;5.85;;;3.70;99.90;;;;;;5066601;28;20033;-70
2023/01/24 13:26:54;;;;;;;13.85;5.47;;;3.70;99.90;;;;;;5076746;28;20024;-70
2023/01/24 13:29:42;;;;;;;10.35;5.40;;;3.50;99.90;;;;;;5076548;28;20403;-70
2023/01/24 13:32:19;;;;;;;11.25;6.05;;;3.40;99.90;;;;;;5075991;28;20029;-70
2023/01/24 13:34:54;;;;;;;14.55;6.60;;;3.30;99.90;;;;;;5076571;28;20032;-70
2023/01/24 13:37:27;;;;;;;11.73;5.93;;;3.20;99.90;;;;;;5075254;28;20024;-70
2023/01/24 13:40:00;;;;;;;12.00;5.40;;;3.30;99.90;;;;;;5076298;28;20028;-70
2023/01/24 13:42:34;;;;;;;13.07;6.30;;;3.50;99.90;;;;;;5075096;28;20035;-70
2023/01/24 13:45:24;;;;;;;13.23;6.32;;;3.60;99.90;;;;;;5075077;28;20480;-70